Time;durP1;ratioP1;P1;durP2;ratioP2;P2;SDS_P1;SDS_P2;PMS_P1;PMS_P2;Temp;Humidity;BMP_temperature;BMP_pressure;BME280_temperature;BME280_humidity;BME280_pressure;Samples;Min_cycle;Max_cycle;Signal;HPM_P1;HPM_P2
2021/01/20 00:01:59;;;;;;;4.83;4.50;;;;;;;6.25;82.35;99356.84;4985165;28;20229;-79
2021/01/20 00:04:25;;;;;;;4.77;4.47;;;;;;;6.28;81.95;99358.53;4985578;28;20237;-80
2021/01/20 00:06:51;;;;;;;4.87;4.57;;;;;;;6.31;82.66;99368.84;4985376;28;20283;-80
2021/01/20 00:09:17;;;;;;;4.60;4.30;;;;;;;6.40;82.01;99365.22;4991270;28;20250;-80
2021/01/20 00:11:44;;;;;;;4.33;4.07;;;;;;;6.45;81.30;99361.66;4988404;28;20212;-80
2021/01/20 00:14:11;;;;;;;4.80;4.50;;;;;;;6.34;81.30;99377.41;4994581;28;20211;-80
2021/01/20 00:16:37;;;;;;;4.63;4.33;;;;;;;6.37;81.37;99376.50;4989200;28;20317;-80
2021/01/20 00:19:03;;;;;;;4.67;4.37;;;;;;;6.25;80.55;99363.78;4991744;28;20239;-80
2021/01/20 00:21:29;;;;;;;4.73;4.43;;;;;;;6.29;81.26;99366.28;4995787;28;20277;-79
2021/01/20 00:23:55;;;;;;;4.60;4.30;;;;;;;6.30;80.80;99360.22;4991689;28;20707;-80
2021/01/20 00:26:21;;;;;;;4.47;4.17;;;;;;;6.18;79.97;99351.81;4992041;28;20618;-80
2021/01/20 00:28:50;;;;;;;4.90;4.60;;;;;;;6.23;81.05;99334.44;4986363;28;20653;-81
2021/01/20 00:31:16;;;;;;;5.10;4.80;;;;;;;6.19;80.55;99338.84;4993750;28;20210;-80
2021/01/20 00:33:42;;;;;;;5.00;4.70;;;;;;;6.22;79.85;99354.31;4991430;28;20350;-79
2021/01/20 00:36:08;;;;;;;4.93;4.53;;;;;;;6.13;79.86;99365.72;4995596;28;20197;-80
2021/01/20 00:38:34;;;;;;;4.57;4.27;;;;;;;6.15;79.56;99366.53;4999401;28;20226;-79
2021/01/20 00:41:00;;;;;;;5.00;4.67;;;;;;;6.15;80.43;99368.28;4989452;28;20214;-80
2021/01/20 00:43:27;;;;;;;4.90;4.53;;;;;;;6.17;80.06;99358.72;4985762;28;20677;-80
2021/01/20 00:45:54;;;;;;;4.97;4.57;;;;;;;6.18;79.76;99362.19;4986892;28;20212;-79
2021/01/20 00:48:19;;;;;;;4.60;4.30;;;;;;;6.14;78.51;99363.97;4994910;28;20228;-79
2021/01/20 00:50:45;;;;;;;4.60;4.30;;;;;;;6.16;78.11;99360.47;4991335;28;20688;-79
2021/01/20 00:53:11;;;;;;;4.53;4.20;;;;;;;6.24;78.94;99357.72;4989904;28;20235;-80
2021/01/20 00:55:37;;;;;;;5.03;4.63;;;;;;;6.20;79.01;99350.03;4980627;28;20215;-80
2021/01/20 00:58:03;;;;;;;4.53;4.13;;;;;;;6.10;79.12;99347.59;4987328;28;20231;-80
2021/01/20 01:00:29;;;;;;;4.37;4.07;;;;;;;6.18;79.34;99329.34;4982889;28;20216;-80
2021/01/20 01:02:55;;;;;;;4.50;4.10;;;;;;;6.09;78.21;99326.94;4986273;28;20593;-81
2021/01/20 01:05:21;;;;;;;4.23;3.93;;;;;;;6.11;78.70;99314.81;4993803;28;20573;-80
2021/01/20 01:07:47;;;;;;;3.77;3.57;;;;;;;6.14;79.07;99315.59;4991045;28;20311;-80
2021/01/20 01:10:13;;;;;;;3.93;3.73;;;;;;;6.17;79.17;99317.28;4993045;28;20309;-81
2021/01/20 01:12:39;;;;;;;4.40;4.10;;;;;;;6.11;78.13;99307.88;4984060;28;20214;-80
2021/01/20 01:15:06;;;;;;;4.20;3.90;;;;;;;6.19;79.24;99310.34;4986705;28;20616;-80
2021/01/20 01:17:32;;;;;;;3.80;3.50;;;;;;;6.17;77.79;99301.72;4989007;28;20261;-81
2021/01/20 01:19:59;;;;;;;4.33;3.93;;;;;;;6.21;78.48;99308.56;4993297;28;20284;-80
2021/01/20 01:22:24;;;;;;;4.50;4.10;;;;;;;6.15;78.51;99299.16;4992545;28;20208;-81
2021/01/20 01:24:50;;;;;;;3.73;3.50;;;;;;;6.13;77.69;99298.34;4992655;28;20634;-80
2021/01/20 01:27:16;;;;;;;6.30;3.97;;;;;;;6.00;77.10;99304.63;4983590;28;20764;-81
2021/01/20 01:29:42;;;;;;;4.10;3.73;;;;;;;6.07;78.37;99307.97;4992523;28;20252;-80
2021/01/20 01:32:08;;;;;;;4.00;3.60;;;;;;;5.97;77.39;99318.50;4982989;28;20205;-81
2021/01/20 01:34:34;;;;;;;4.00;3.70;;;;;;;5.99;78.10;99295.16;4992478;28;20215;-81
2021/01/20 01:37:01;;;;;;;3.97;3.67;;;;;;;5.99;78.38;99294.31;4983395;28;20577;-80
2021/01/20 01:39:27;;;;;;;4.17;3.80;;;;;;;5.97;78.07;99295.19;4993678;28;20226;-80
2021/01/20 01:41:52;;;;;;;3.50;3.30;;;;;;;5.91;78.10;99295.28;4983816;28;20197;-80
2021/01/20 01:44:19;;;;;;;3.47;3.27;;;;;;;5.92;77.89;99290.94;4993031;28;20216;-79
2021/01/20 01:46:44;;;;;;;4.00;3.70;;;;;;;5.89;77.79;99289.28;4985048;28;20280;-80
2021/01/20 01:49:10;;;;;;;3.50;3.20;;;;;;;5.87;78.55;99280.69;4995686;28;20244;-80
2021/01/20 01:51:36;;;;;;;3.43;3.10;;;;;;;5.87;77.81;99266.88;4991373;28;20288;-80
2021/01/20 01:54:03;;;;;;;3.10;2.80;;;;;;;5.76;77.99;99280.00;4992162;28;20213;-80
2021/01/20 01:56:30;;;;;;;3.47;3.27;;;;;;;5.71;77.58;99274.06;4988005;28;20208;-80
2021/01/20 01:58:56;;;;;;;3.27;3.00;;;;;;;5.77;78.10;99267.03;4991063;28;20232;-81
2021/01/20 02:01:22;;;;;;;3.13;2.80;;;;;;;5.76;78.38;99272.25;4984687;28;20201;-80
2021/01/20 02:03:48;;;;;;;3.20;2.87;;;;;;;5.78;77.91;99275.66;4992510;28;20240;-81
2021/01/20 02:06:14;;;;;;;3.47;3.20;;;;;;;5.80;78.02;99253.19;4990513;28;20200;-81
2021/01/20 02:08:41;;;;;;;4.43;3.07;;;;;;;5.73;77.85;99264.56;4987493;28;20236;-81
2021/01/20 02:11:21;;;;;;;3.00;2.80;;;;;;;5.75;78.13;99257.59;4995435;28;20208;-80
2021/01/20 02:13:57;;;;;;;3.43;2.90;;;;;;;5.86;78.44;99255.66;4990982;28;20207;-80
2021/01/20 02:16:26;;;;;;;3.50;3.20;;;;;;;5.84;78.75;99248.78;4985671;28;20193;-80
2021/01/20 02:18:54;;;;;;;3.60;3.03;;;;;;;5.88;77.70;99250.44;4989286;28;20243;-81
2021/01/20 02:21:55;;;;;;;2.90;2.70;;;;;;;5.94;77.58;99251.16;4995600;28;20204;-80
2021/01/20 02:24:30;;;;;;;2.60;2.40;;;;;;;5.93;78.26;99241.72;4993232;28;20623;-80
2021/01/20 02:27:04;;;;;;;2.90;2.60;;;;;;;5.95;77.81;99252.06;4987477;28;20212;-81
2021/01/20 02:29:38;;;;;;;3.37;3.07;;;;;;;5.97;77.88;99251.16;4995246;28;20764;-80
2021/01/20 02:32:08;;;;;;;2.83;2.43;;;;;;;5.69;76.78;99245.63;4989692;28;20218;-80
2021/01/20 02:34:35;;;;;;;2.70;2.50;;;;;;;5.73;77.98;99238.66;4997527;28;20212;-80
2021/01/20 02:37:03;;;;;;;3.20;2.33;;;;;;;5.75;77.31;99232.56;4988010;28;20204;-80
2021/01/20 02:39:30;;;;;;;3.47;2.90;;;;;;;5.71;77.97;99233.50;4997400;28;20230;-81
2021/01/20 02:42:01;;;;;;;3.53;2.63;;;;;;;5.76;77.21;99221.31;4990020;28;20708;-81
2021/01/20 02:44:27;;;;;;;3.20;2.63;;;;;;;5.69;77.19;99229.22;4987749;28;20216;-80
2021/01/20 02:46:53;;;;;;;3.23;2.20;;;;;;;5.74;77.51;99235.16;4986973;28;20210;-81
2021/01/20 02:49:20;;;;;;;4.00;2.87;;;;;;;5.65;76.03;99246.56;4991021;28;20235;-81
2021/01/20 02:51:52;;;;;;;3.10;2.73;;;;;;;5.72;77.43;99240.38;4979889;28;20452;-81
2021/01/20 02:54:21;;;;;;;3.23;2.37;;;;;;;5.78;77.33;99236.81;4992112;28;20208;-81
2021/01/20 02:56:48;;;;;;;3.70;2.57;;;;;;;5.69;75.84;99236.97;4980027;28;20212;-81
2021/01/20 02:59:17;;;;;;;3.33;2.70;;;;;;;5.58;75.17;99255.31;4986640;28;20215;-80
2021/01/20 03:01:50;;;;;;;4.30;2.60;;;;;;;5.50;75.65;99252.84;4980290;28;20211;-80
2021/01/20 03:04:17;;;;;;;3.97;2.37;;;;;;;5.44;75.38;99258.13;4986308;28;20215;-81
2021/01/20 03:06:46;;;;;;;4.30;2.67;;;;;;;5.50;76.46;99239.91;4979532;28;20209;-79
2021/01/20 03:09:13;;;;;;;2.87;2.53;;;;;;;5.61;76.40;99233.69;4986242;28;20251;-80
2021/01/20 03:11:44;;;;;;;3.23;2.50;;;;;;;5.65;76.65;99231.03;4980637;28;20215;-80
2021/01/20 03:14:10;;;;;;;2.40;2.03;;;;;;;5.67;75.55;99228.38;4989187;28;20205;-81
2021/01/20 03:16:36;;;;;;;3.10;2.70;;;;;;;5.57;75.43;99226.00;4980983;28;20210;-81
2021/01/20 03:19:02;;;;;;;2.63;2.10;;;;;;;5.68;76.17;99220.59;4991201;28;20697;-80
2021/01/20 03:21:28;;;;;;;3.67;2.23;;;;;;;5.65;75.58;99210.31;4985127;28;20207;-80
2021/01/20 03:23:54;;;;;;;2.63;2.20;;;;;;;5.56;74.91;99216.50;4989892;28;20208;-80
2021/01/20 03:26:20;;;;;;;3.77;2.57;;;;;;;5.61;74.92;99218.16;4987254;28;20199;-81
2021/01/20 03:28:46;;;;;;;3.20;2.53;;;;;;;5.64;74.20;99225.88;4991276;28;20433;-80
2021/01/20 03:31:12;;;;;;;3.30;2.00;;;;;;;5.57;72.55;99210.47;4989426;28;20209;-81
2021/01/20 03:33:38;;;;;;;2.97;2.43;;;;;;;5.65;74.65;99217.22;4992539;28;20216;-81
2021/01/20 03:36:04;;;;;;;2.70;2.30;;;;;;;5.66;73.65;99216.34;4988610;28;20266;-80
2021/01/20 03:38:30;;;;;;;2.90;2.20;;;;;;;5.58;73.40;99219.06;4991751;28;20227;-80
2021/01/20 03:40:57;;;;;;;4.43;2.23;;;;;;;5.60;74.71;99216.47;4993773;28;20215;-80
2021/01/20 03:43:23;;;;;;;4.20;2.57;;;;;;;5.67;75.05;99218.91;4999892;28;20232;-80
2021/01/20 03:45:49;;;;;;;3.57;2.30;;;;;;;5.63;74.35;99221.56;4990443;28;20206;-80
2021/01/20 03:48:15;;;;;;;2.80;2.17;;;;;;;5.65;74.08;99218.09;4990897;28;20219;-81
2021/01/20 03:50:40;;;;;;;3.83;2.50;;;;;;;5.68;74.10;99206.81;4994593;28;20282;-81
2021/01/20 03:53:06;;;;;;;2.60;2.40;;;;;;;5.73;73.71;99216.19;4994228;28;20664;-81
2021/01/20 03:55:32;;;;;;;4.47;2.40;;;;;;;5.74;73.53;99207.53;4988972;28;20291;-81
2021/01/20 03:57:59;;;;;;;2.70;2.10;;;;;;;5.68;74.02;99207.66;4989483;28;20692;-80
2021/01/20 04:00:24;;;;;;;3.53;2.47;;;;;;;5.56;73.72;99203.56;4995094;28;20587;-81
2021/01/20 04:02:50;;;;;;;2.53;2.33;;;;;;;5.61;73.05;99202.63;4988753;28;20205;-80
2021/01/20 04:05:16;;;;;;;5.10;2.43;;;;;;;5.58;73.72;99194.03;4999535;28;20207;-80
2021/01/20 04:07:42;;;;;;;3.83;2.67;;;;;;;5.64;73.80;99194.81;4985113;28;21622;-81
2021/01/20 04:10:09;;;;;;;3.13;2.70;;;;;;;5.60;73.34;99203.50;4995280;28;20225;-81
2021/01/20 04:12:35;;;;;;;3.13;2.87;;;;;;;5.48;73.11;99197.66;4985111;28;20204;-80
2021/01/20 04:15:03;;;;;;;2.80;2.50;;;;;;;5.38;73.56;99196.13;4993936;28;20201;-80
2021/01/20 04:17:29;;;;;;;5.77;2.73;;;;;;;5.45;72.80;99204.63;4986246;28;20200;-81
2021/01/20 04:19:55;;;;;;;2.67;2.47;;;;;;;5.46;73.91;99207.19;4996174;28;20223;-80
2021/01/20 04:22:20;;;;;;;3.00;2.70;;;;;;;5.51;73.88;99202.81;4992848;28;20204;-80
2021/01/20 04:24:46;;;;;;;3.47;3.00;;;;;;;5.52;74.33;99201.06;4996282;28;20211;-81
2021/01/20 04:27:12;;;;;;;3.07;2.77;;;;;;;5.51;72.19;99202.81;4987583;28;20685;-81
2021/01/20 04:29:40;;;;;;;4.83;3.10;;;;;;;5.43;73.88;99203.81;4995351;28;20266;-81
2021/01/20 04:32:07;;;;;;;3.63;3.33;;;;;;;5.50;73.90;99200.25;4987545;28;20250;-81
2021/01/20 04:34:33;;;;;;;3.10;2.70;;;;;;;5.53;73.53;99213.97;4994446;28;20264;-81
2021/01/20 04:36:59;;;;;;;2.93;2.63;;;;;;;5.50;72.32;99208.00;4987848;28;20209;-80
2021/01/20 04:39:25;;;;;;;3.53;2.93;;;;;;;5.55;73.76;99207.03;4996374;28;20231;-81
2021/01/20 04:41:52;;;;;;;2.70;2.37;;;;;;;5.65;73.85;99193.91;4989246;28;20208;-80
2021/01/20 04:44:17;;;;;;;2.87;2.63;;;;;;;5.62;72.89;99196.56;4994254;28;20215;-81
2021/01/20 04:46:44;;;;;;;3.13;2.83;;;;;;;5.64;72.91;99200.84;4990734;28;20729;-79
2021/01/20 04:49:14;;;;;;;2.83;2.63;;;;;;;5.62;72.37;99205.19;4994605;28;20225;-81
2021/01/20 04:51:43;;;;;;;2.70;2.50;;;;;;;5.65;72.98;99197.38;4998007;28;20247;-81
2021/01/20 04:54:10;;;;;;;3.13;2.83;;;;;;;5.57;71.58;99201.84;4994512;28;20205;-81
2021/01/20 04:56:37;;;;;;;3.03;2.73;;;;;;;5.45;71.87;99194.28;4992396;28;20213;-81
2021/01/20 04:59:03;;;;;;;3.73;2.80;;;;;;;5.53;72.03;99195.88;4992073;28;20223;-80
2021/01/20 05:01:30;;;;;;;3.07;2.87;;;;;;;5.52;72.33;99201.06;4988156;28;20295;-80
2021/01/20 05:03:57;;;;;;;3.47;3.03;;;;;;;5.56;72.26;99194.94;4997254;28;20203;-81
2021/01/20 05:06:24;;;;;;;3.37;3.10;;;;;;;5.59;72.71;99189.72;4995199;28;20232;-81
2021/01/20 05:08:50;;;;;;;2.97;2.67;;;;;;;5.54;70.97;99197.56;4992819;28;20231;-80
2021/01/20 05:11:15;;;;;;;3.10;2.90;;;;;;;5.55;71.14;99178.56;4996163;28;20221;-80
2021/01/20 05:13:44;;;;;;;3.37;2.67;;;;;;;5.61;72.74;99176.72;4992054;28;20212;-80
2021/01/20 05:16:24;;;;;;;3.27;2.83;;;;;;;5.58;72.50;99169.88;4996278;28;20246;-80
2021/01/20 05:18:50;;;;;;;3.03;2.73;;;;;;;5.45;71.34;99163.22;4990353;28;20258;-82
2021/01/20 05:21:17;;;;;;;3.50;3.13;;;;;;;5.54;73.00;99171.69;4980055;28;20262;-82
2021/01/20 05:23:44;;;;;;;2.60;2.40;;;;;;;5.47;72.83;99161.47;4987660;28;20742;-83
2021/01/20 05:26:10;;;;;;;6.83;3.07;;;;;;;5.42;73.30;99151.22;4981098;28;20208;-83
2021/01/20 05:28:37;;;;;;;3.37;2.80;;;;;;;5.52;73.15;99150.16;4986916;28;20235;-83
2021/01/20 05:31:04;;;;;;;2.87;2.63;;;;;;;5.57;73.06;99148.34;4981698;28;20203;-82
2021/01/20 05:33:35;;;;;;;2.93;2.60;;;;;;;5.64;72.86;99143.03;4987905;28;20344;-83
2021/01/20 05:36:09;;;;;;;2.93;2.63;;;;;;;5.62;72.54;99147.38;4979587;28;20212;-81
2021/01/20 05:38:36;;;;;;;2.60;2.40;;;;;;;5.55;71.55;99141.50;4987406;28;20232;-81
2021/01/20 05:41:19;;;;;;;4.20;3.10;;;;;;;5.58;73.02;99139.66;4982252;28;20213;-83
2021/01/20 05:43:45;;;;;;;3.30;3.00;;;;;;;5.56;73.42;99133.66;4985761;28;20215;-83
2021/01/20 05:46:11;;;;;;;3.10;2.83;;;;;;;5.55;72.89;99138.91;4981933;28;20734;-82
2021/01/20 05:48:48;;;;;;;2.83;2.23;;;;;;;5.63;72.75;99137.00;4988027;28;20293;-82
2021/01/20 05:51:14;;;;;;;3.07;2.77;;;;;;;5.66;73.91;99141.28;4981575;28;20200;-82
2021/01/20 05:53:51;;;;;;;3.10;2.80;;;;;;;5.71;73.94;99127.34;4994504;28;20264;-82
2021/01/20 05:56:25;;;;;;;3.57;3.20;;;;;;;5.77;74.16;99128.97;4979916;28;20212;-83
2021/01/20 05:58:51;;;;;;;5.40;4.90;;;;;;;5.78;73.16;99131.50;4987120;28;20227;-82
2021/01/20 06:01:17;;;;;;;5.20;4.70;;;;;;;5.82;73.72;99126.28;4988631;28;20210;-82
2021/01/20 06:03:44;;;;;;;15.27;13.77;;;;;;;5.75;73.86;99129.00;4987275;28;20210;-83
2021/01/20 06:06:10;;;;;;;3.93;3.53;;;;;;;5.79;73.52;99119.44;4989116;28;20321;-81
2021/01/20 06:08:36;;;;;;;4.73;4.10;;;;;;;5.76;73.27;99128.09;4987316;28;20235;-82
2021/01/20 06:11:03;;;;;;;4.07;3.37;;;;;;;5.71;73.71;99124.75;4983062;28;20192;-82
2021/01/20 06:13:30;;;;;;;5.83;5.33;;;;;;;5.81;73.99;99129.72;4987207;28;20205;-83
2021/01/20 06:15:59;;;;;;;4.20;3.70;;;;;;;5.72;75.05;99125.59;4983572;28;20228;-82
2021/01/20 06:18:30;;;;;;;5.00;4.33;;;;;;;5.77;74.49;99124.63;4987967;28;20790;-83
2021/01/20 06:20:55;;;;;;;7.10;4.33;;;;;;;5.73;74.42;99123.00;4988375;28;20208;-83
2021/01/20 06:23:24;;;;;;;3.93;3.37;;;;;;;5.79;74.73;99116.84;4996986;28;20253;-83
2021/01/20 06:25:56;;;;;;;3.67;3.37;;;;;;;5.76;74.05;99127.25;4989020;28;20206;-82
2021/01/20 06:28:22;;;;;;;2.77;2.57;;;;;;;5.73;73.29;99120.41;4988374;28;20242;-82
2021/01/20 06:30:52;;;;;;;4.20;3.00;;;;;;;5.72;73.27;99123.88;4984367;28;20215;-81
2021/01/20 06:33:20;;;;;;;3.77;2.83;;;;;;;5.67;73.32;99125.72;4986316;28;20624;-81
2021/01/20 06:35:48;;;;;;;2.93;2.73;;;;;;;5.66;73.82;99121.41;4985049;28;20201;-81
2021/01/20 06:38:35;;;;;;;5.07;3.50;;;;;;;5.70;74.21;99128.22;4991997;28;20255;-82
2021/01/20 06:41:03;;;;;;;3.80;2.70;;;;;;;5.57;72.93;99125.03;4986316;28;20204;-80
2021/01/20 06:43:37;;;;;;;2.67;2.47;;;;;;;5.36;73.36;99134.06;4990398;28;20208;-80
2021/01/20 06:46:21;;;;;;;3.20;2.60;;;;;;;5.37;74.19;99120.25;4986366;28;20264;-82
2021/01/20 06:49:04;;;;;;;2.83;2.40;;;;;;;5.42;73.85;99114.97;4994559;28;20247;-80
2021/01/20 06:51:32;;;;;;;3.20;2.90;;;;;;;5.40;73.55;99124.50;4986986;28;20223;-83
2021/01/20 06:54:10;;;;;;;2.83;2.57;;;;;;;5.26;74.45;99116.16;4991974;28;20216;-81
2021/01/20 06:56:38;;;;;;;2.87;2.53;;;;;;;5.35;74.31;99103.03;4992655;28;20269;-83
2021/01/20 06:59:23;;;;;;;3.37;2.63;;;;;;;5.38;73.78;99103.00;4994397;28;20227;-81
2021/01/20 07:02:13;;;;;;;3.27;2.97;;;;;;;5.30;73.86;99097.97;4991537;28;20199;-83
2021/01/20 07:05:03;;;;;;;3.23;2.73;;;;;;;5.07;74.37;99100.97;4994665;28;20649;-81
2021/01/20 07:07:53;;;;;;;3.20;3.00;;;;;;;5.00;75.54;99101.13;4994319;28;20302;-82
2021/01/20 07:10:20;;;;;;;3.67;3.33;;;;;;;4.92;75.23;99093.50;4992447;28;20223;-83
2021/01/20 07:13:13;;;;;;;4.50;3.23;;;;;;;5.03;75.24;99095.88;4987962;28;20209;-82
2021/01/20 07:15:39;;;;;;;4.20;3.37;;;;;;;5.07;75.90;99097.53;4993410;28;20199;-81
2021/01/20 07:18:08;;;;;;;5.07;4.50;;;;;;;5.01;76.32;99090.72;4991923;28;20235;-81
2021/01/20 07:20:34;;;;;;;4.37;3.70;;;;;;;5.00;75.72;99101.97;4992480;28;20665;-80
2021/01/20 07:23:01;;;;;;;4.07;3.47;;;;;;;5.06;75.76;99090.66;4991752;28;20234;-82
2021/01/20 07:25:27;;;;;;;3.27;2.97;;;;;;;5.11;74.96;99088.84;4995931;28;20451;-82
2021/01/20 07:27:53;;;;;;;3.00;2.70;;;;;;;5.09;75.10;99081.09;4990428;28;20273;-81
2021/01/20 07:30:20;;;;;;;3.70;2.40;;;;;;;5.07;75.80;99088.03;4996056;28;20715;-79
2021/01/20 07:32:47;;;;;;;3.23;2.97;;;;;;;5.05;76.83;99087.22;4983804;28;20207;-80
2021/01/20 07:35:17;;;;;;;2.90;2.70;;;;;;;5.12;76.20;99085.38;4989190;28;20210;-82
2021/01/20 07:37:44;;;;;;;4.23;3.83;;;;;;;5.21;76.49;99086.94;4983648;28;20760;-79
2021/01/20 07:40:11;;;;;;;3.83;3.20;;;;;;;5.27;76.32;99084.22;4988978;28;20200;-80
2021/01/20 07:42:38;;;;;;;3.93;3.33;;;;;;;5.28;75.46;99076.44;4978089;28;20205;-81
2021/01/20 07:45:05;;;;;;;3.20;2.30;;;;;;;5.30;75.62;99073.81;4987093;28;20295;-80
2021/01/20 07:47:44;;;;;;;5.97;5.00;;;;;;;5.38;74.54;99065.03;4982760;28;20216;-80
2021/01/20 07:50:11;;;;;;;4.40;3.83;;;;;;;5.37;74.29;99072.81;4988119;28;20224;-79
2021/01/20 07:52:38;;;;;;;4.43;3.27;;;;;;;5.37;73.95;99067.63;4982871;28;20208;-80
2021/01/20 07:55:15;;;;;;;3.63;3.33;;;;;;;5.38;73.13;99067.59;4987786;28;20206;-80
2021/01/20 07:57:41;;;;;;;3.23;2.90;;;;;;;5.37;72.66;99054.69;4983046;28;20227;-79
2021/01/20 08:00:09;;;;;;;2.80;2.60;;;;;;;5.42;72.14;99057.22;4988830;28;20201;-81
2021/01/20 08:02:46;;;;;;;2.97;2.73;;;;;;;5.32;71.49;99052.22;4983071;28;20288;-81
2021/01/20 08:05:12;;;;;;;2.97;2.77;;;;;;;5.28;71.16;99050.56;4988289;28;20661;-82
2021/01/20 08:07:39;;;;;;;2.63;2.43;;;;;;;5.32;72.48;99052.22;4984742;28;20223;-80
2021/01/20 08:10:16;;;;;;;3.13;2.77;;;;;;;5.38;71.76;99051.25;4990598;28;20631;-80
2021/01/20 08:12:42;;;;;;;2.70;2.50;;;;;;;5.36;71.30;99043.50;4987999;28;20266;-82
2021/01/20 08:15:09;;;;;;;2.63;2.23;;;;;;;5.44;70.69;99039.91;4990306;28;20208;-80
2021/01/20 08:17:35;;;;;;;3.10;2.53;;;;;;;5.42;70.82;99042.53;4990184;28;20211;-76
2021/01/20 08:20:01;;;;;;;3.53;2.50;;;;;;;5.44;70.18;99038.16;4995840;28;20192;-81
2021/01/20 08:22:27;;;;;;;2.60;2.40;;;;;;;5.44;70.96;99038.16;4991158;28;20235;-79
2021/01/20 08:24:54;;;;;;;2.90;2.63;;;;;;;5.44;70.58;99047.69;4995451;28;20205;-78
2021/01/20 08:27:24;;;;;;;1.90;1.80;;;;;;;5.52;69.94;99046.63;4990514;28;20217;-81
2021/01/20 08:29:51;;;;;;;2.40;2.20;;;;;;;5.58;70.17;99043.91;4995377;28;20278;-82
2021/01/20 08:32:17;;;;;;;2.53;2.33;;;;;;;5.63;69.61;99045.53;4990441;28;20204;-79
2021/01/20 08:34:45;;;;;;;2.67;2.47;;;;;;;5.67;69.68;99053.22;4995312;28;20259;-81
2021/01/20 08:37:12;;;;;;;3.43;2.50;;;;;;;5.68;69.74;99049.75;4990370;28;20209;-81
2021/01/20 08:39:40;;;;;;;2.80;2.60;;;;;;;5.71;69.65;99052.28;4996260;28;20227;-82
2021/01/20 08:42:18;;;;;;;2.40;2.20;;;;;;;5.79;69.56;99054.69;4990197;28;20203;-81
2021/01/20 08:45:11;;;;;;;2.77;2.57;;;;;;;5.77;68.99;99044.38;4998074;28;20691;-81
2021/01/20 08:47:44;;;;;;;2.60;2.40;;;;;;;5.76;68.38;99040.06;4991251;28;20252;-82
2021/01/20 08:50:11;;;;;;;2.77;2.30;;;;;;;5.83;68.03;99048.56;4994054;28;20510;-81
2021/01/20 08:52:44;;;;;;;2.57;2.37;;;;;;;5.91;69.00;99053.59;4989313;28;20208;-80
2021/01/20 08:55:22;;;;;;;3.00;2.70;;;;;;;5.90;68.62;99060.47;4994218;28;20246;-81
2021/01/20 08:58:16;;;;;;;2.70;2.50;;;;;;;5.92;67.54;99069.06;4992197;28;20278;-80
2021/01/20 09:00:42;;;;;;;2.77;2.20;;;;;;;5.94;67.58;99067.28;4991843;28;20229;-81
2021/01/20 09:03:12;;;;;;;2.63;2.27;;;;;;;6.02;68.05;99072.34;4988407;28;20208;-81
2021/01/20 09:05:38;;;;;;;2.57;2.37;;;;;;;6.06;67.20;99076.56;4989963;28;20204;-81
2021/01/20 09:08:04;;;;;;;2.40;2.20;;;;;;;6.12;67.87;99067.78;4991749;28;20577;-78
2021/01/20 09:10:30;;;;;;;2.50;2.30;;;;;;;6.16;67.27;99074.59;4990365;28;20273;-83
2021/01/20 09:12:57;;;;;;;2.40;2.20;;;;;;;6.26;68.87;99060.53;4985211;28;20636;-80
2021/01/20 09:16:20;;;;;;;2.00;1.80;;;;;;;6.07;66.31;99061.88;4994098;28;20899;-84
2021/01/20 09:18:48;;;;;;;2.80;2.20;;;;;;;6.17;67.38;99065.97;4988631;28;20326;-78
2021/01/20 09:21:14;;;;;;;2.53;2.00;;;;;;;6.43;69.72;99051.53;4982786;28;20206;-78
2021/01/20 09:23:39;;;;;;;2.47;2.27;;;;;;;6.49;67.78;99060.00;4990193;28;20208;-81
2021/01/20 09:26:05;;;;;;;4.30;2.20;;;;;;;6.64;74.23;99074.34;4987770;28;20231;-81
2021/01/20 09:28:32;;;;;;;7.03;2.17;;;;;;;6.72;67.81;99068.97;4991938;28;20230;-79
2021/01/20 09:30:58;;;;;;;2.10;1.60;;;;;;;6.76;68.86;99068.00;4989081;28;20245;-79
2021/01/20 09:33:24;;;;;;;2.30;1.90;;;;;;;6.61;66.82;99070.97;4992527;28;20207;-80
2021/01/20 09:35:50;;;;;;;2.10;1.93;;;;;;;6.79;72.04;99061.88;5000107;28;20205;-79
2021/01/20 09:38:17;;;;;;;2.53;2.20;;;;;;;6.80;67.43;99059.25;5003387;28;20230;-78
2021/01/20 09:40:43;;;;;;;3.33;2.00;;;;;;;6.94;70.53;99044.16;4996625;28;20198;-77
2021/01/20 09:43:10;;;;;;;2.13;1.93;;;;;;;7.07;70.19;99057.63;4998291;28;20204;-77
2021/01/20 09:45:36;;;;;;;2.30;2.10;;;;;;;7.23;68.66;99052.88;4996383;28;20197;-77
2021/01/20 09:48:04;;;;;;;2.60;2.33;;;;;;;7.35;68.38;99057.75;5001960;28;20233;-80
2021/01/20 09:50:33;;;;;;;3.23;2.30;;;;;;;7.52;68.86;99051.22;5005296;28;20235;-79
2021/01/20 09:52:59;;;;;;;2.47;2.10;;;;;;;7.59;68.02;99055.34;5002618;28;20205;-80
2021/01/20 09:55:25;;;;;;;2.43;1.87;;;;;;;7.42;65.95;99040.25;5003851;28;20213;-79
2021/01/20 09:57:51;;;;;;;2.37;1.73;;;;;;;7.43;67.70;99062.69;5000565;28;20226;-80
2021/01/20 10:00:17;;;;;;;6.07;1.77;;;;;;;7.49;67.08;99051.31;5000490;28;20200;-79
2021/01/20 10:02:44;;;;;;;1.57;1.47;;;;;;;7.47;65.04;99056.56;4997753;28;20224;-79
2021/01/20 10:05:11;;;;;;;2.00;1.80;;;;;;;7.40;64.78;99055.03;4998401;28;20197;-78
2021/01/20 10:07:37;;;;;;;2.17;1.60;;;;;;;7.39;64.23;99058.50;4992277;28;20222;-80
2021/01/20 10:10:04;;;;;;;2.30;1.70;;;;;;;7.49;66.18;99053.91;4994699;28;20227;-79
2021/01/20 10:12:29;;;;;;;2.17;1.50;;;;;;;7.68;66.01;99055.06;4988848;28;20236;-79
2021/01/20 10:14:55;;;;;;;4.30;1.90;;;;;;;7.76;65.86;99055.69;4994728;28;20203;-78
2021/01/20 10:17:21;;;;;;;2.13;1.63;;;;;;;7.75;64.46;99056.59;4989432;28;20248;-79
2021/01/20 10:19:48;;;;;;;1.87;1.50;;;;;;;7.66;62.91;99053.41;4994193;28;20284;-80
2021/01/20 10:22:14;;;;;;;3.80;1.70;;;;;;;7.71;67.76;99038.53;4989569;28;20205;-79
2021/01/20 10:24:39;;;;;;;1.73;1.63;;;;;;;7.84;65.51;99049.44;4992635;28;20205;-80
2021/01/20 10:27:05;;;;;;;1.97;1.60;;;;;;;7.90;63.80;99049.22;4989686;28;20203;-78
2021/01/20 10:29:31;;;;;;;2.17;1.67;;;;;;;7.76;62.42;99050.50;4993125;28;20275;-79
2021/01/20 10:31:57;;;;;;;1.87;1.77;;;;;;;7.91;66.03;99057.00;4988605;28;20202;-79
2021/01/20 10:34:23;;;;;;;1.87;1.77;;;;;;;7.83;62.97;99048.59;4993217;28;20209;-79
2021/01/20 10:36:49;;;;;;;1.57;1.47;;;;;;;7.76;62.14;99054.84;4989016;28;20289;-79
2021/01/20 10:39:15;;;;;;;1.77;1.60;;;;;;;7.66;62.98;99043.88;4993660;28;20226;-80
2021/01/20 10:41:41;;;;;;;2.00;1.50;;;;;;;7.71;64.56;99042.00;4988909;28;20726;-80
2021/01/20 10:44:07;;;;;;;2.03;1.77;;;;;;;7.74;65.04;99030.66;4993560;28;20212;-79
2021/01/20 10:46:33;;;;;;;1.80;1.70;;;;;;;7.85;64.69;99028.59;4989141;28;20209;-79
2021/01/20 10:49:01;;;;;;;2.77;1.57;;;;;;;7.89;64.84;99022.41;4992142;28;20227;-78
2021/01/20 10:51:29;;;;;;;1.60;1.50;;;;;;;7.75;63.90;99028.03;4989057;28;20214;-79
2021/01/20 10:53:55;;;;;;;1.60;1.50;;;;;;;7.88;64.28;99025.06;4991753;28;20231;-80
2021/01/20 10:56:21;;;;;;;1.57;1.47;;;;;;;7.69;63.39;99023.03;4989139;28;20202;-78
2021/01/20 10:58:50;;;;;;;1.40;1.30;;;;;;;7.79;62.89;99021.00;4992558;28;20389;-78
2021/01/20 11:01:16;;;;;;;2.13;1.70;;;;;;;7.85;63.61;99017.34;4987513;28;20213;-79
2021/01/20 11:03:44;;;;;;;1.97;1.43;;;;;;;7.86;63.59;99026.84;4992244;28;20288;-79
2021/01/20 11:06:09;;;;;;;1.93;1.50;;;;;;;7.95;63.47;99016.19;4989599;28;20237;-79
2021/01/20 11:08:35;;;;;;;1.73;1.60;;;;;;;7.86;60.98;99019.06;4990583;28;20238;-79
2021/01/20 11:11:02;;;;;;;1.80;1.70;;;;;;;7.86;61.02;99025.09;4990735;28;20276;-80
2021/01/20 11:13:29;;;;;;;1.67;1.50;;;;;;;7.92;61.79;99011.91;4990991;28;20214;-79
2021/01/20 11:15:55;;;;;;;1.90;1.73;;;;;;;7.88;62.89;99030.25;4989763;28;20285;-78
2021/01/20 11:18:21;;;;;;;1.70;1.60;;;;;;;8.01;63.12;99030.69;4988181;28;20668;-78
2021/01/20 11:20:48;;;;;;;2.00;1.80;;;;;;;8.12;63.58;99019.06;4990000;28;20204;-79
2021/01/20 11:23:17;;;;;;;1.77;1.67;;;;;;;8.20;62.66;99018.00;4991464;28;20205;-80
2021/01/20 11:25:44;;;;;;;1.53;1.30;;;;;;;8.21;61.23;99012.75;4990682;28;20668;-80
2021/01/20 11:28:11;;;;;;;48.70;5.17;;;;;;;8.35;62.50;99007.09;4989774;28;20233;-79
2021/01/20 11:30:37;;;;;;;5.23;1.80;;;;;;;8.28;60.82;99008.19;4983564;28;20756;-80
2021/01/20 11:33:03;;;;;;;2.63;1.43;;;;;;;8.31;61.83;98998.53;4984802;28;20212;-80
2021/01/20 11:35:29;;;;;;;1.80;1.57;;;;;;;8.40;61.75;99014.75;4988597;28;20235;-80
2021/01/20 11:37:56;;;;;;;1.43;1.30;;;;;;;8.35;60.99;99013.13;4985496;28;20727;-82
2021/01/20 11:40:22;;;;;;;1.50;1.40;;;;;;;8.37;61.26;99020.06;4987457;28;20739;-80
2021/01/20 11:42:48;;;;;;;1.40;1.30;;;;;;;8.52;61.09;99015.22;4985250;28;20252;-80
2021/01/20 11:45:15;;;;;;;1.57;1.37;;;;;;;8.50;61.06;99021.34;4988785;28;20275;-80
2021/01/20 11:47:41;;;;;;;1.40;1.30;;;;;;;8.48;60.23;99007.56;4988407;28;20567;-82